createdAt,value
2023-05-20T00:00:30.700Z,12.80
2023-05-20T00:02:55.182Z,12.70
2023-05-20T00:03:57.720Z,12.70
2023-05-20T00:04:59.928Z,12.70
2023-05-20T00:06:01.753Z,12.70
2023-05-20T00:07:04.046Z,12.70
2023-05-20T00:08:09.325Z,12.80
2023-05-20T00:09:11.421Z,12.70
2023-05-20T00:10:13.335Z,12.80
2023-05-20T00:11:15.380Z,12.70
2023-05-20T00:12:17.218Z,12.70
2023-05-20T00:13:19.058Z,12.70
2023-05-20T00:14:21.579Z,12.70
2023-05-20T00:15:23.369Z,12.70
2023-05-20T00:16:25.275Z,12.80
2023-05-20T00:17:28.449Z,12.80
2023-05-20T00:18:30.350Z,12.80
2023-05-20T00:19:32.149Z,12.80
2023-05-20T00:20:33.975Z,12.80
2023-05-20T00:21:35.822Z,12.70
2023-05-20T00:22:37.596Z,12.80
2023-05-20T00:23:39.389Z,12.70
2023-05-20T00:24:41.165Z,12.70
2023-05-20T00:25:42.981Z,12.70
2023-05-20T00:26:44.798Z,12.70
2023-05-20T00:27:47.234Z,12.70
2023-05-20T00:28:49.030Z,12.70
2023-05-20T00:29:50.886Z,12.70
2023-05-20T00:30:52.678Z,12.70
2023-05-20T00:31:54.669Z,12.70
2023-05-20T00:32:56.546Z,12.70
2023-05-20T00:33:58.336Z,12.70
2023-05-20T00:35:00.934Z,12.70
2023-05-20T00:36:02.751Z,12.70
2023-05-20T00:37:04.602Z,12.70
2023-05-20T00:38:06.406Z,12.70
2023-05-20T00:39:08.189Z,12.70
2023-05-20T00:40:10.348Z,12.70
2023-05-20T00:41:12.390Z,12.70
2023-05-20T00:42:21.335Z,12.70
2023-05-20T00:43:25.334Z,12.70
2023-05-20T00:44:27.464Z,12.70
2023-05-20T00:45:29.536Z,12.70
2023-05-20T00:46:31.574Z,12.70
2023-05-20T00:47:36.482Z,12.70
2023-05-20T00:48:43.548Z,12.70
2023-05-20T00:49:48.906Z,12.70
2023-05-20T00:50:52.349Z,12.60
2023-05-20T00:51:54.903Z,12.70
2023-05-20T00:52:56.864Z,12.70
2023-05-20T00:53:59.080Z,12.60
2023-05-20T00:55:01.176Z,12.60
2023-05-20T00:56:04.777Z,12.60
2023-05-20T00:57:08.098Z,12.50
2023-05-20T00:58:09.936Z,12.50
2023-05-20T01:00:27.875Z,12.50
2023-05-20T01:01:29.766Z,12.50
2023-05-20T01:02:31.782Z,12.50
2023-05-20T01:03:34.257Z,12.50
2023-05-20T01:04:36.490Z,12.50
2023-05-20T01:05:40.576Z,12.50
2023-05-20T01:06:46.248Z,12.50
2023-05-20T01:07:48.221Z,12.50
2023-05-20T01:08:50.078Z,12.40
2023-05-20T01:09:52.974Z,12.40
2023-05-20T01:11:25.012Z,12.40
2023-05-20T01:12:40.508Z,12.50
2023-05-20T01:13:48.585Z,12.50
2023-05-20T01:14:59.064Z,12.50
2023-05-20T01:16:03.120Z,12.50
2023-05-20T01:17:11.152Z,12.50
2023-05-20T01:18:18.274Z,12.50
2023-05-20T01:19:44.140Z,12.50
2023-05-20T01:20:49.744Z,12.50
2023-05-20T01:21:54.150Z,12.50
2023-05-20T01:22:57.007Z,12.50
2023-05-20T01:23:58.909Z,12.50
2023-05-20T01:25:03.095Z,12.50
2023-05-20T01:26:06.341Z,12.50
2023-05-20T01:27:10.565Z,12.50
2023-05-20T01:28:17.756Z,12.50
2023-05-20T01:29:19.708Z,12.50
2023-05-20T01:30:22.306Z,12.50
2023-05-20T01:31:25.822Z,12.50
2023-05-20T01:32:52.717Z,12.50
2023-05-20T01:33:58.283Z,12.50
2023-05-20T01:35:01.037Z,12.50
2023-05-20T01:36:03.224Z,12.50
2023-05-20T01:37:06.934Z,12.50
2023-05-20T01:38:08.985Z,12.50
2023-05-20T01:39:11.395Z,12.50
2023-05-20T01:40:16.507Z,12.50
2023-05-20T01:41:19.007Z,12.50
2023-05-20T01:42:21.394Z,12.40
2023-05-20T01:43:24.371Z,12.50
2023-05-20T01:44:26.336Z,12.40
2023-05-20T01:45:28.178Z,12.40
2023-05-20T01:46:36.068Z,12.40
2023-05-20T01:47:38.011Z,12.40
2023-05-20T01:48:39.944Z,12.40
2023-05-20T01:49:41.896Z,12.40
2023-05-20T01:50:43.802Z,12.40
2023-05-20T01:51:45.650Z,12.40
2023-05-20T01:52:47.449Z,12.40
2023-05-20T01:53:49.235Z,12.40
2023-05-20T01:54:51.406Z,12.40
2023-05-20T01:55:53.179Z,12.40
2023-05-20T01:56:55.711Z,12.40
2023-05-20T01:57:57.516Z,12.40
2023-05-20T01:58:59.302Z,12.40
2023-05-20T02:00:01.159Z,12.40
2023-05-20T02:01:03.740Z,12.40
2023-05-20T02:02:05.653Z,12.40
2023-05-20T02:03:07.707Z,12.40
2023-05-20T02:04:09.785Z,12.40
2023-05-20T02:05:11.584Z,12.40
2023-05-20T02:06:13.423Z,12.40
2023-05-20T02:07:16.378Z,12.40
2023-05-20T02:08:18.168Z,12.40
2023-05-20T02:09:19.966Z,12.40
2023-05-20T02:10:21.780Z,12.40
2023-05-20T02:11:23.614Z,12.40
2023-05-20T02:12:25.392Z,12.40
2023-05-20T02:13:27.165Z,12.40
2023-05-20T02:14:28.935Z,12.40
2023-05-20T02:15:30.884Z,12.30
2023-05-20T02:16:32.786Z,12.30
2023-05-20T02:17:34.677Z,12.30
2023-05-20T02:18:36.606Z,12.30
2023-05-20T02:19:38.432Z,12.20
2023-05-20T02:20:41.189Z,12.30
2023-05-20T02:21:44.057Z,12.20
2023-05-20T02:22:46.041Z,12.20
2023-05-20T02:23:47.828Z,12.20
2023-05-20T02:24:49.701Z,12.20
2023-05-20T02:25:51.492Z,12.10
2023-05-20T02:26:54.817Z,12.10
2023-05-20T02:27:56.605Z,12.10
2023-05-20T02:28:58.429Z,12.10
2023-05-20T02:30:01.324Z,12.00
2023-05-20T02:31:03.249Z,12.00
2023-05-20T02:32:05.354Z,12.00
2023-05-20T02:33:08.983Z,12.00
2023-05-20T02:34:10.872Z,12.00
2023-05-20T02:35:12.752Z,12.00
2023-05-20T02:36:15.022Z,12.00
2023-05-20T02:37:16.796Z,12.00
2023-05-20T02:38:18.590Z,12.00
2023-05-20T02:39:20.689Z,12.00
2023-05-20T02:40:23.009Z,12.00
2023-05-20T02:41:24.848Z,12.00
2023-05-20T02:42:26.626Z,12.00
2023-05-20T02:43:28.437Z,12.00
2023-05-20T02:44:30.515Z,11.90
2023-05-20T02:45:32.532Z,12.00
2023-05-20T02:46:34.611Z,12.00
2023-05-20T02:47:36.502Z,11.90
2023-05-20T02:48:38.352Z,11.90
2023-05-20T02:49:40.114Z,11.90
2023-05-20T02:50:42.004Z,11.90
2023-05-20T02:51:43.880Z,11.90
2023-05-20T02:52:46.283Z,11.90
2023-05-20T02:53:48.147Z,11.90
2023-05-20T02:54:49.951Z,11.90
2023-05-20T02:55:52.105Z,11.80
2023-05-20T02:56:53.882Z,11.90
2023-05-20T02:57:55.674Z,11.90
2023-05-20T02:58:57.577Z,11.90
2023-05-20T02:59:59.352Z,11.90
2023-05-20T03:01:01.840Z,11.80
2023-05-20T03:02:03.719Z,11.90
2023-05-20T03:03:05.520Z,11.90
2023-05-20T03:04:07.497Z,11.90
2023-05-20T03:05:09.726Z,11.90
2023-05-20T03:06:12.101Z,11.80
2023-05-20T03:07:14.676Z,11.80
2023-05-20T03:08:16.522Z,11.80
2023-05-20T03:09:21.786Z,11.80
2023-05-20T03:10:23.646Z,11.80
2023-05-20T03:11:26.130Z,11.80
2023-05-20T03:12:27.935Z,11.70
2023-05-20T03:13:29.716Z,11.80
2023-05-20T03:14:31.516Z,11.70
2023-05-20T03:15:33.540Z,11.70
2023-05-20T03:16:35.727Z,11.70
2023-05-20T03:17:37.739Z,11.70
2023-05-20T03:18:39.953Z,11.70
2023-05-20T03:19:41.864Z,11.70
2023-05-20T03:20:43.795Z,11.70
2023-05-20T03:21:46.605Z,11.70
2023-05-20T03:22:48.388Z,11.70
2023-05-20T03:23:50.159Z,11.70
2023-05-20T03:24:52.925Z,11.80
2023-05-20T03:25:55.069Z,11.80
2023-05-20T03:26:57.068Z,11.80
2023-05-20T03:27:59.724Z,11.80
2023-05-20T03:29:01.488Z,11.80
2023-05-20T03:30:04.991Z,11.80
2023-05-20T03:31:06.871Z,11.80
2023-05-20T03:32:10.806Z,11.80
2023-05-20T03:33:12.830Z,11.80
2023-05-20T03:34:14.755Z,11.90
2023-05-20T03:35:16.770Z,11.90
2023-05-20T03:36:18.591Z,11.90
2023-05-20T03:37:20.447Z,11.90
2023-05-20T03:38:22.212Z,11.90
2023-05-20T03:39:24.076Z,11.90
2023-05-20T03:40:26.085Z,12.00
2023-05-20T03:41:28.422Z,11.90
2023-05-20T03:42:30.477Z,12.00
2023-05-20T03:43:32.263Z,12.00
2023-05-20T03:44:34.092Z,12.00
2023-05-20T03:45:36.183Z,12.00
2023-05-20T03:46:38.190Z,12.00
2023-05-20T03:47:40.043Z,12.00
2023-05-20T03:48:41.959Z,12.00
2023-05-20T03:49:43.768Z,12.00
2023-05-20T03:50:46.149Z,12.00
2023-05-20T03:51:48.065Z,12.00
2023-05-20T03:52:49.874Z,12.00
2023-05-20T03:53:51.754Z,12.00
2023-05-20T03:54:54.444Z,12.00
2023-05-20T03:55:56.236Z,12.10
2023-05-20T03:56:58.029Z,12.10
2023-05-20T03:58:01.238Z,12.10
2023-05-20T03:59:03.025Z,12.10
2023-05-20T04:00:12.001Z,12.10
2023-05-20T04:01:14.362Z,12.10
2023-05-20T04:02:16.325Z,12.10
2023-05-20T04:03:18.494Z,12.10
2023-05-20T04:04:20.453Z,12.00
2023-05-20T04:05:23.901Z,12.10
2023-05-20T04:06:26.606Z,12.10
2023-05-20T04:07:29.919Z,12.10
2023-05-20T04:08:31.738Z,12.10
2023-05-20T04:09:33.529Z,12.10
2023-05-20T04:10:35.633Z,12.10
2023-05-20T04:11:37.586Z,12.10
2023-05-20T04:12:39.460Z,12.10
2023-05-20T04:13:41.288Z,12.10
2023-05-20T04:14:43.131Z,12.20
2023-05-20T04:15:44.949Z,12.20
2023-05-20T04:16:46.817Z,12.20
2023-05-20T04:17:49.003Z,12.10
2023-05-20T04:18:52.471Z,12.10
2023-05-20T04:19:54.259Z,12.20
2023-05-20T04:20:56.575Z,12.10
2023-05-20T04:21:58.383Z,12.10
2023-05-20T04:23:00.301Z,12.10
2023-05-20T04:24:02.330Z,12.20
2023-05-20T04:25:05.305Z,12.20
2023-05-20T04:26:07.244Z,12.20
2023-05-20T04:27:09.477Z,12.20
2023-05-20T04:28:14.094Z,12.20
2023-05-20T04:29:16.107Z,12.20
2023-05-20T04:30:18.573Z,12.20
2023-05-20T04:31:21.266Z,12.20
2023-05-20T04:32:23.735Z,12.20
2023-05-20T04:33:26.686Z,12.20
2023-05-20T04:34:35.097Z,12.20
2023-05-20T04:35:38.166Z,12.30
2023-05-20T04:36:40.446Z,12.30
2023-05-20T04:37:42.519Z,12.30
2023-05-20T04:38:44.788Z,12.30
2023-05-20T04:39:49.863Z,12.30
2023-05-20T04:40:51.661Z,12.30
2023-05-20T04:41:55.066Z,12.30
2023-05-20T04:42:59.913Z,12.30
2023-05-20T04:44:01.952Z,12.30
2023-05-20T04:45:05.770Z,12.40
2023-05-20T04:46:07.768Z,12.40
2023-05-20T04:47:09.609Z,12.40
2023-05-20T04:48:11.425Z,12.40
2023-05-20T04:49:13.279Z,12.40
2023-05-20T04:50:15.297Z,12.40
2023-05-20T04:51:17.832Z,12.40
2023-05-20T04:52:19.617Z,12.40
2023-05-20T04:53:24.064Z,12.50
2023-05-20T04:54:25.975Z,12.50
2023-05-20T04:55:28.737Z,12.50
2023-05-20T04:56:30.513Z,12.50
2023-05-20T04:57:34.515Z,12.50
2023-05-20T04:58:36.311Z,12.50
2023-05-20T04:59:38.142Z,12.50
2023-05-20T05:00:39.915Z,12.50
2023-05-20T05:01:41.710Z,12.50
2023-05-20T05:02:43.580Z,12.50
2023-05-20T05:03:45.579Z,12.50
2023-05-20T05:04:47.424Z,12.50
2023-05-20T05:05:49.211Z,12.50
2023-05-20T05:06:51.103Z,12.50
2023-05-20T05:07:52.906Z,12.50
2023-05-20T05:08:54.727Z,12.60
2023-05-20T05:09:56.523Z,12.60
2023-05-20T05:10:58.335Z,12.60
2023-05-20T05:12:00.130Z,12.60
2023-05-20T05:13:02.384Z,12.60
2023-05-20T05:14:04.194Z,12.60
2023-05-20T05:15:06.501Z,12.60
2023-05-20T05:16:08.520Z,12.60
2023-05-20T05:17:10.654Z,12.60
2023-05-20T05:18:12.547Z,12.70
2023-05-20T05:19:14.387Z,12.70
2023-05-20T05:20:16.363Z,12.70
2023-05-20T05:21:18.253Z,12.70
2023-05-20T05:22:20.171Z,12.70
2023-05-20T05:23:21.932Z,12.70
2023-05-20T05:24:24.275Z,12.70
2023-05-20T05:25:26.067Z,12.70
2023-05-20T05:26:27.876Z,12.80
2023-05-20T05:27:29.738Z,12.80
2023-05-20T05:28:31.612Z,12.80
2023-05-20T05:29:33.465Z,12.80
2023-05-20T05:30:35.598Z,12.80
2023-05-20T05:31:37.408Z,12.80
2023-05-20T05:32:39.309Z,12.80
2023-05-20T05:33:41.131Z,12.80
2023-05-20T05:34:42.888Z,12.80
2023-05-20T05:35:45.003Z,12.80
2023-05-20T05:36:46.791Z,12.80
2023-05-20T05:37:48.646Z,12.80
2023-05-20T05:38:50.781Z,12.90
2023-05-20T05:39:52.731Z,12.90
2023-05-20T05:40:54.585Z,12.90
2023-05-20T05:41:56.400Z,12.90
2023-05-20T05:42:58.216Z,12.90
2023-05-20T05:44:00.350Z,12.90
2023-05-20T05:45:02.333Z,12.90
2023-05-20T05:46:05.146Z,13.00
2023-05-20T05:47:07.247Z,12.90
2023-05-20T05:48:09.125Z,12.90
2023-05-20T05:49:10.934Z,12.90
2023-05-20T05:50:12.822Z,13.00
2023-05-20T05:51:15.461Z,13.00
2023-05-20T05:52:17.235Z,13.00
2023-05-20T05:53:19.047Z,13.00
2023-05-20T05:54:21.065Z,13.00
2023-05-20T05:55:24.088Z,13.00
2023-05-20T05:56:26.039Z,13.00
2023-05-20T05:57:27.868Z,13.00
2023-05-20T05:58:29.650Z,13.00
2023-05-20T05:59:31.462Z,13.00
2023-05-20T06:00:33.463Z,13.00
2023-05-20T06:01:35.282Z,13.10
2023-05-20T06:02:37.223Z,13.10
2023-05-20T06:03:39.194Z,13.10
2023-05-20T06:04:41.476Z,13.10
2023-05-20T06:05:47.306Z,13.10
2023-05-20T06:06:49.572Z,13.10
2023-05-20T06:07:51.376Z,13.10
2023-05-20T06:08:53.156Z,13.10
2023-05-20T06:09:54.967Z,13.10
2023-05-20T06:10:56.911Z,13.10
2023-05-20T06:11:58.672Z,13.10
2023-05-20T06:13:00.639Z,13.20
2023-05-20T06:14:02.932Z,13.10
2023-05-20T06:15:05.209Z,13.20
2023-05-20T06:16:07.344Z,13.20
2023-05-20T06:17:09.171Z,13.20
2023-05-20T06:18:11.909Z,13.20
2023-05-20T06:19:13.794Z,13.20
2023-05-20T06:20:15.709Z,13.20
2023-05-20T06:21:17.533Z,13.30
2023-05-20T06:22:19.416Z,13.30
2023-05-20T06:23:21.172Z,13.30
2023-05-20T06:24:24.494Z,13.40
2023-05-20T06:25:27.497Z,13.40
2023-05-20T06:26:29.282Z,13.50
2023-05-20T06:27:31.140Z,13.50
2023-05-20T06:28:32.949Z,13.60
2023-05-20T06:29:35.111Z,13.60
2023-05-20T06:30:36.926Z,13.60
2023-05-20T06:31:38.745Z,13.60
2023-05-20T06:32:40.734Z,13.70
2023-05-20T06:33:42.560Z,13.70
2023-05-20T06:34:45.313Z,13.70
2023-05-20T06:35:47.839Z,13.80
2023-05-20T06:36:49.640Z,13.80
2023-05-20T06:37:51.514Z,13.80
2023-05-20T06:38:53.310Z,13.90
2023-05-20T06:39:55.291Z,13.90
2023-05-20T06:40:57.065Z,13.80
2023-05-20T06:41:58.888Z,13.90
2023-05-20T06:43:00.812Z,13.90
2023-05-20T06:44:02.897Z,13.90
2023-05-20T06:45:05.336Z,13.90
2023-05-20T06:46:07.324Z,13.90
2023-05-20T06:47:09.258Z,13.90
2023-05-20T06:48:11.315Z,13.90
2023-05-20T06:49:13.095Z,13.90
2023-05-20T06:50:14.996Z,13.80
2023-05-20T06:51:16.785Z,13.80
2023-05-20T06:52:18.525Z,13.80
2023-05-20T06:53:20.418Z,13.80
2023-05-20T06:54:22.180Z,13.80
2023-05-20T06:55:23.982Z,13.80
2023-05-20T06:56:25.867Z,13.80
2023-05-20T06:57:27.650Z,13.90
2023-05-20T06:58:29.657Z,13.90
2023-05-20T06:59:31.400Z,13.90
2023-05-20T07:00:33.206Z,14.00
2023-05-20T07:01:34.993Z,14.00
2023-05-20T07:02:36.765Z,14.00
2023-05-20T07:03:38.604Z,14.10
2023-05-20T07:04:40.454Z,14.10
2023-05-20T07:05:42.328Z,14.10
2023-05-20T07:06:44.085Z,14.10
2023-05-20T07:07:46.025Z,14.10
2023-05-20T07:08:47.797Z,14.10
2023-05-20T07:09:49.612Z,14.10
2023-05-20T07:10:51.539Z,14.10
2023-05-20T07:11:53.303Z,14.10
2023-05-20T07:12:55.091Z,14.10
2023-05-20T07:13:56.923Z,14.20
2023-05-20T07:14:58.756Z,14.20
2023-05-20T07:16:00.582Z,14.20
2023-05-20T07:17:02.331Z,14.20
2023-05-20T07:18:04.196Z,14.20
2023-05-20T07:19:06.075Z,14.20
2023-05-20T07:20:08.322Z,14.30
2023-05-20T07:21:10.163Z,14.30
2023-05-20T07:22:12.240Z,14.30
2023-05-20T07:23:15.656Z,14.30
2023-05-20T07:24:18.082Z,14.30
2023-05-20T07:25:19.893Z,14.30
2023-05-20T07:26:21.887Z,14.30
2023-05-20T07:27:23.689Z,14.30
2023-05-20T07:28:25.591Z,14.30
2023-05-20T07:29:27.345Z,14.30
2023-05-20T07:30:29.177Z,14.40
2023-05-20T07:31:31.498Z,14.40
2023-05-20T07:32:33.365Z,14.40
2023-05-20T07:33:35.230Z,14.50
2023-05-20T07:34:37.277Z,14.50
2023-05-20T07:35:39.061Z,14.50
2023-05-20T07:36:40.880Z,14.50
2023-05-20T07:37:42.595Z,14.50
2023-05-20T07:38:56.597Z,14.50
2023-05-20T07:40:05.512Z,14.40
2023-05-20T07:41:07.311Z,14.50
2023-05-20T07:42:09.184Z,14.50
2023-05-20T07:43:10.959Z,14.60
2023-05-20T07:44:13.216Z,14.60
2023-05-20T07:45:15.053Z,14.60
2023-05-20T07:46:18.719Z,14.60
2023-05-20T07:47:21.859Z,14.70
2023-05-20T07:48:23.684Z,14.70
2023-05-20T07:49:25.454Z,14.80
2023-05-20T07:50:27.276Z,14.90
2023-05-20T07:51:29.017Z,14.90
2023-05-20T07:52:35.628Z,14.90
2023-05-20T07:53:42.851Z,15.00
2023-05-20T07:54:44.664Z,15.10
2023-05-20T07:55:46.402Z,15.10
2023-05-20T07:56:48.144Z,15.20
2023-05-20T07:57:53.077Z,15.20
2023-05-20T07:58:58.419Z,15.20
2023-05-20T08:00:00.191Z,15.20
2023-05-20T08:01:02.022Z,15.30
2023-05-20T08:02:03.890Z,15.30
2023-05-20T08:03:08.015Z,15.30
2023-05-20T08:04:10.294Z,15.30
2023-05-20T08:05:12.212Z,15.40
2023-05-20T08:06:14.173Z,15.40
2023-05-20T08:07:15.992Z,15.40
2023-05-20T08:08:18.143Z,15.50
2023-05-20T08:09:19.951Z,15.60
2023-05-20T08:10:21.832Z,15.60
2023-05-20T08:11:23.623Z,15.70
2023-05-20T08:12:25.699Z,15.80
2023-05-20T08:13:27.557Z,15.80
2023-05-20T08:14:29.341Z,15.90
2023-05-20T08:15:31.142Z,15.90
2023-05-20T08:16:33.043Z,16.00
2023-05-20T08:17:35.272Z,16.00
2023-05-20T08:18:37.968Z,16.00
2023-05-20T08:19:39.826Z,16.00
2023-05-20T08:20:42.748Z,16.00
2023-05-20T08:21:44.872Z,15.90
2023-05-20T08:22:47.452Z,15.90
2023-05-20T08:23:49.430Z,16.00
2023-05-20T08:24:51.253Z,16.00
2023-05-20T08:25:53.201Z,16.00
2023-05-20T08:26:55.033Z,16.10
2023-05-20T08:27:56.790Z,16.10
2023-05-20T08:28:58.669Z,16.10
2023-05-20T08:30:00.974Z,16.20
2023-05-20T08:31:03.272Z,16.20
2023-05-20T08:32:05.522Z,16.20
2023-05-20T08:33:07.795Z,16.10
2023-05-20T08:34:09.723Z,16.20
2023-05-20T08:35:11.615Z,16.20
2023-05-20T08:36:13.885Z,16.20
2023-05-20T08:37:16.568Z,16.30
2023-05-20T08:38:18.575Z,16.40
2023-05-20T08:39:20.430Z,16.50
2023-05-20T08:40:23.116Z,16.50
2023-05-20T08:41:25.750Z,16.60
2023-05-20T08:42:27.581Z,16.70
2023-05-20T08:43:30.378Z,16.80
2023-05-20T08:44:33.001Z,16.80
2023-05-20T08:45:37.410Z,16.90
2023-05-20T08:46:40.896Z,17.00
2023-05-20T08:47:43.949Z,17.00
2023-05-20T08:48:45.880Z,17.00
2023-05-20T08:49:49.429Z,17.00
2023-05-20T08:50:52.458Z,17.00
2023-05-20T08:51:54.282Z,17.00
2023-05-20T08:52:56.500Z,16.90
2023-05-20T08:54:00.396Z,16.90
2023-05-20T08:55:02.776Z,16.90
2023-05-20T08:56:04.852Z,16.80
2023-05-20T08:57:06.710Z,16.80
2023-05-20T08:58:09.257Z,16.80
2023-05-20T08:59:11.155Z,16.80
2023-05-20T09:00:17.020Z,16.80
2023-05-20T09:01:19.420Z,16.80
2023-05-20T09:02:21.687Z,16.80
2023-05-20T09:03:24.394Z,16.80
2023-05-20T09:04:26.604Z,16.80
2023-05-20T09:05:28.846Z,16.80
2023-05-20T09:06:31.405Z,16.80
2023-05-20T09:07:33.187Z,16.80
2023-05-20T09:08:35.878Z,16.90
2023-05-20T09:09:37.713Z,17.00
2023-05-20T09:10:41.590Z,17.10
2023-05-20T09:11:43.776Z,17.20
2023-05-20T09:12:45.672Z,17.30
2023-05-20T09:13:47.531Z,17.40
2023-05-20T09:14:49.705Z,17.50
2023-05-20T09:15:51.582Z,17.40
2023-05-20T09:16:53.558Z,17.50
2023-05-20T09:17:55.518Z,17.50
2023-05-20T09:18:57.525Z,17.50
2023-05-20T09:19:59.460Z,17.70
2023-05-20T09:21:06.975Z,17.80
2023-05-20T09:22:08.894Z,17.90
2023-05-20T09:23:10.867Z,18.00
2023-05-20T09:24:12.714Z,18.00
2023-05-20T09:25:15.966Z,18.00
2023-05-20T09:26:18.532Z,18.00
2023-05-20T09:27:21.829Z,17.90
2023-05-20T09:28:27.641Z,17.90
2023-05-20T09:29:33.689Z,18.10
2023-05-20T09:30:35.691Z,18.10
2023-05-20T09:31:39.096Z,18.00
2023-05-20T09:32:41.137Z,18.00
2023-05-20T09:33:43.530Z,18.00
2023-05-20T09:34:47.151Z,18.10
2023-05-20T09:35:49.801Z,18.30
2023-05-20T09:36:52.006Z,18.40
2023-05-20T09:37:56.699Z,18.60
2023-05-20T09:39:03.347Z,18.70
2023-05-20T09:40:06.339Z,18.90
2023-05-20T09:41:11.702Z,19.00
2023-05-20T09:42:21.860Z,19.20
2023-05-20T09:43:23.698Z,19.40
2023-05-20T09:44:25.932Z,19.60
2023-05-20T09:45:28.008Z,19.70
2023-05-20T09:46:31.504Z,19.70
2023-05-20T09:47:33.523Z,19.70
2023-05-20T09:48:39.135Z,19.70
2023-05-20T09:49:42.121Z,19.80
2023-05-20T09:50:44.129Z,19.80
2023-05-20T09:51:46.864Z,19.90
2023-05-20T09:52:50.070Z,19.90
2023-05-20T09:53:53.731Z,19.90
2023-05-20T09:54:56.431Z,19.90
2023-05-20T09:55:58.822Z,19.80
2023-05-20T09:57:01.073Z,19.90
2023-05-20T09:58:03.547Z,20.00
2023-05-20T09:59:05.838Z,20.20
2023-05-20T10:00:13.812Z,20.20
2023-05-20T10:01:16.218Z,20.20
2023-05-20T10:02:18.184Z,20.30
2023-05-20T10:03:24.130Z,20.40
2023-05-20T10:04:28.140Z,20.60
2023-05-20T10:05:38.929Z,20.60
2023-05-20T10:07:34.005Z,20.60
2023-05-20T10:09:14.551Z,20.70
2023-05-20T10:10:48.449Z,20.80
2023-05-20T10:12:27.368Z,20.90
2023-05-20T10:13:53.539Z,20.80
2023-05-20T10:15:10.491Z,20.70
2023-05-20T10:16:52.792Z,20.50
2023-05-20T10:18:21.735Z,20.40
2023-05-20T10:19:32.783Z,20.40
2023-05-20T10:20:48.998Z,20.40
2023-05-20T10:22:26.514Z,20.50
2023-05-20T10:23:30.177Z,20.70
2023-05-20T10:24:34.088Z,20.70
2023-05-20T10:25:36.103Z,20.70
2023-05-20T10:26:39.625Z,20.70
2023-05-20T10:27:48.309Z,20.70
2023-05-20T10:28:50.172Z,20.80
2023-05-20T10:29:56.294Z,20.80
2023-05-20T10:30:59.106Z,20.80
2023-05-20T10:32:01.683Z,20.80
2023-05-20T10:33:07.057Z,20.80
2023-05-20T10:34:16.862Z,20.90
2023-05-20T10:35:23.273Z,21.00
2023-05-20T10:36:31.137Z,21.00
2023-05-20T10:37:40.080Z,21.00
2023-05-20T10:38:56.814Z,21.20
2023-05-20T10:40:13.525Z,21.20
2023-05-20T10:41:21.598Z,21.10
2023-05-20T10:42:30.118Z,21.00
2023-05-20T10:43:32.011Z,20.90
2023-05-20T10:44:54.067Z,21.00
2023-05-20T10:45:57.719Z,20.90
2023-05-20T10:47:23.569Z,20.90
2023-05-20T10:48:31.773Z,21.00
2023-05-20T10:49:36.120Z,21.10
2023-05-20T10:50:40.505Z,21.20
2023-05-20T10:51:44.388Z,21.40
2023-05-20T10:52:46.244Z,21.50
2023-05-20T10:53:48.451Z,21.70
2023-05-20T10:55:00.911Z,21.80
2023-05-20T10:56:03.045Z,21.80
2023-05-20T10:57:11.873Z,21.80
2023-05-20T10:58:14.702Z,21.80
2023-05-20T10:59:16.635Z,21.80
2023-05-20T11:00:18.585Z,21.70
2023-05-20T11:01:26.015Z,21.80
2023-05-20T11:02:28.778Z,21.80
2023-05-20T11:03:31.847Z,21.80
2023-05-20T11:04:34.003Z,21.80
2023-05-20T11:05:36.761Z,21.90
2023-05-20T11:06:38.682Z,21.90
2023-05-20T11:07:40.536Z,22.00
2023-05-20T11:08:44.554Z,22.00
2023-05-20T11:09:50.982Z,22.10
2023-05-20T11:10:52.833Z,22.20
2023-05-20T11:11:55.269Z,22.20
2023-05-20T11:12:57.772Z,22.20
2023-05-20T11:14:00.762Z,22.20
2023-05-20T11:15:03.129Z,22.10
2023-05-20T11:16:05.823Z,22.00
2023-05-20T11:17:08.209Z,22.00
2023-05-20T11:18:12.450Z,21.90
2023-05-20T11:19:17.272Z,21.90
2023-05-20T11:20:19.544Z,21.90
2023-05-20T11:21:21.638Z,21.80
2023-05-20T11:22:23.447Z,21.80
2023-05-20T11:23:27.936Z,21.80
2023-05-20T11:24:29.874Z,21.90
2023-05-20T11:25:33.208Z,21.90
2023-05-20T11:26:35.004Z,21.90
2023-05-20T11:27:39.958Z,22.00
2023-05-20T11:28:42.022Z,22.10
2023-05-20T11:29:43.928Z,22.10
2023-05-20T11:30:46.054Z,22.10
2023-05-20T11:31:52.231Z,22.10
2023-05-20T11:32:58.750Z,21.90
2023-05-20T11:34:04.321Z,21.90
2023-05-20T11:35:07.357Z,21.90
2023-05-20T11:36:26.357Z,22.00
2023-05-20T11:37:29.306Z,22.00
2023-05-20T11:38:31.607Z,21.80
2023-05-20T11:39:34.037Z,21.80
2023-05-20T11:40:49.157Z,21.70
2023-05-20T11:41:52.843Z,21.70
2023-05-20T11:42:59.235Z,21.80
2023-05-20T11:44:01.388Z,21.80
2023-05-20T11:45:03.562Z,21.90
2023-05-20T11:46:05.796Z,22.00
2023-05-20T11:47:07.580Z,22.10
2023-05-20T11:48:11.348Z,22.20
2023-05-20T11:49:17.013Z,22.30
2023-05-20T11:50:20.270Z,22.40
2023-05-20T11:51:27.634Z,22.50
2023-05-20T11:52:29.696Z,22.70
2023-05-20T11:53:31.720Z,22.80
2023-05-20T11:54:36.371Z,22.90
2023-05-20T11:55:51.525Z,22.90
2023-05-20T11:56:55.966Z,22.80
2023-05-20T11:57:58.934Z,22.80
2023-05-20T11:59:01.792Z,22.80
2023-05-20T12:00:07.190Z,22.90
2023-05-20T12:01:21.233Z,22.90
2023-05-20T12:02:24.547Z,23.10
2023-05-20T12:03:26.599Z,23.10
2023-05-20T12:04:28.605Z,23.10
2023-05-20T12:05:30.541Z,23.10
2023-05-20T12:06:32.517Z,23.10
2023-05-20T12:07:34.366Z,23.20
2023-05-20T12:08:36.271Z,23.20
2023-05-20T12:09:38.124Z,23.30
2023-05-20T12:10:39.997Z,23.30
2023-05-20T12:11:42.400Z,23.30
2023-05-20T12:12:45.564Z,23.20
2023-05-20T12:13:47.343Z,23.20
2023-05-20T12:14:49.164Z,23.20
2023-05-20T12:15:51.026Z,23.00
2023-05-20T12:16:53.769Z,22.90
2023-05-20T12:17:55.740Z,22.70
2023-05-20T12:18:57.703Z,22.60
2023-05-20T12:19:59.549Z,22.50
2023-05-20T12:21:01.752Z,22.40
2023-05-20T12:22:03.564Z,22.30
2023-05-20T12:23:05.525Z,22.30
2023-05-20T12:24:08.616Z,22.20
2023-05-20T12:25:12.891Z,22.30
2023-05-20T12:26:14.726Z,22.30
2023-05-20T12:27:16.690Z,22.30
2023-05-20T12:28:18.541Z,22.30
2023-05-20T12:29:20.344Z,22.20
2023-05-20T12:30:23.225Z,22.30
2023-05-20T12:31:25.989Z,22.30
2023-05-20T12:32:27.960Z,22.30
2023-05-20T12:33:29.750Z,22.30
2023-05-20T12:34:33.140Z,22.30
2023-05-20T12:35:39.812Z,22.30
2023-05-20T12:36:42.405Z,22.40
2023-05-20T12:37:44.497Z,22.50
2023-05-20T12:38:46.558Z,22.60
2023-05-20T12:39:48.369Z,22.80
2023-05-20T12:40:50.371Z,22.90
2023-05-20T12:41:52.200Z,23.10
2023-05-20T12:42:54.014Z,23.20
2023-05-20T12:43:55.930Z,23.30
2023-05-20T12:44:57.775Z,23.50
2023-05-20T12:45:59.659Z,23.70
2023-05-20T12:47:01.458Z,23.80
2023-05-20T12:48:07.180Z,23.90
2023-05-20T12:49:09.021Z,24.10
2023-05-20T12:50:11.191Z,24.10
2023-05-20T12:51:12.973Z,24.00
2023-05-20T12:52:22.363Z,23.90
2023-05-20T12:53:25.318Z,23.70
2023-05-20T12:54:28.510Z,23.50
2023-05-20T12:55:30.371Z,23.40
2023-05-20T12:56:32.345Z,23.30
2023-05-20T12:57:34.111Z,23.20
2023-05-20T12:58:36.008Z,23.10
2023-05-20T12:59:38.016Z,23.00
2023-05-20T13:00:39.807Z,22.80
2023-05-20T13:01:41.816Z,22.60
2023-05-20T13:02:44.455Z,22.50
2023-05-20T13:03:47.377Z,22.50
2023-05-20T13:04:49.270Z,22.40
2023-05-20T13:05:51.342Z,22.40
2023-05-20T13:06:53.173Z,22.40
2023-05-20T13:07:54.967Z,22.60
2023-05-20T13:08:56.801Z,22.70
2023-05-20T13:09:59.681Z,22.90
2023-05-20T13:11:01.442Z,23.10
2023-05-20T13:12:03.236Z,23.20
2023-05-20T13:13:05.230Z,23.30
2023-05-20T13:14:07.492Z,23.40
2023-05-20T13:15:09.756Z,23.40
2023-05-20T13:16:12.002Z,23.30
2023-05-20T13:17:13.844Z,23.30
2023-05-20T13:18:16.617Z,23.30
2023-05-20T13:19:18.427Z,23.30
2023-05-20T13:20:20.337Z,23.40
2023-05-20T13:21:22.283Z,23.50
2023-05-20T13:22:24.095Z,23.60
2023-05-20T13:23:26.128Z,23.80
2023-05-20T13:24:27.981Z,23.90
2023-05-20T13:25:29.844Z,23.80
2023-05-20T13:26:31.636Z,23.60
2023-05-20T13:27:33.529Z,23.50
2023-05-20T13:28:35.454Z,23.30
2023-05-20T13:29:37.309Z,23.30
2023-05-20T13:30:39.347Z,23.20
2023-05-20T13:31:41.323Z,23.00
2023-05-20T13:32:43.110Z,22.90
2023-05-20T13:33:44.949Z,22.90
2023-05-20T13:34:46.772Z,22.90
2023-05-20T13:35:48.651Z,23.10
2023-05-20T13:36:51.037Z,23.00
2023-05-20T13:37:53.090Z,22.90